sensor_id;sensor_type;location;lat;lon;timestamp;P1;durP1;ratioP1;P2;durP2;ratioP2
43817;SDS011;29868;47.360;18.984;2023-02-28T12:04:01;9.52;;;4.68;;
43817;SDS011;29868;47.360;18.984;2023-02-28T12:06:41;8.03;;;4.20;;
43817;SDS011;29868;47.360;18.984;2023-02-28T12:11:56;9.63;;;5.20;;
43817;SDS011;29868;47.360;18.984;2023-02-28T12:27:50;10.88;;;5.72;;
43817;SDS011;29868;47.360;18.984;2023-02-28T12:30:22;9.68;;;5.53;;
43817;SDS011;29868;47.360;18.984;2023-02-28T12:33:01;9.57;;;5.40;;
43817;SDS011;29868;47.360;18.984;2023-02-28T12:35:49;12.40;;;6.00;;
43817;SDS011;29868;47.360;18.984;2023-02-28T12:38:31;8.55;;;4.95;;
43817;SDS011;29868;47.360;18.984;2023-02-28T12:41:00;10.05;;;5.45;;
43817;SDS011;29868;47.360;18.984;2023-02-28T12:43:32;10.25;;;4.95;;
43817;SDS011;29868;47.360;18.984;2023-02-28T12:46:04;8.77;;;4.85;;
43817;SDS011;29868;47.360;18.984;2023-02-28T12:51:08;7.60;;;4.70;;
43817;SDS011;29868;47.360;18.984;2023-02-28T12:56:56;10.73;;;5.13;;
43817;SDS011;29868;47.360;18.984;2023-02-28T12:59:45;10.35;;;5.05;;
43817;SDS011;29868;47.360;18.984;2023-02-28T13:08:51;9.13;;;5.32;;
43817;SDS011;29868;47.360;18.984;2023-02-28T13:11:22;9.55;;;4.90;;
43817;SDS011;29868;47.360;18.984;2023-02-28T13:13:59;9.85;;;4.65;;
43817;SDS011;29868;47.360;18.984;2023-02-28T13:16:27;10.13;;;5.13;;
43817;SDS011;29868;47.360;18.984;2023-02-28T13:18:53;9.00;;;5.22;;
43817;SDS011;29868;47.360;18.984;2023-02-28T13:21:41;9.35;;;4.68;;
43817;SDS011;29868;47.360;18.984;2023-02-28T13:24:08;9.48;;;4.88;;
43817;SDS011;29868;47.360;18.984;2023-02-28T13:29:41;10.68;;;5.10;;
43817;SDS011;29868;47.360;18.984;2023-02-28T13:34:38;7.72;;;4.45;;
43817;SDS011;29868;47.360;18.984;2023-02-28T13:39:49;15.05;;;6.10;;
43817;SDS011;29868;47.360;18.984;2023-02-28T13:47:31;8.15;;;4.28;;
43817;SDS011;29868;47.360;18.984;2023-02-28T13:52:55;8.90;;;4.63;;
43817;SDS011;29868;47.360;18.984;2023-02-28T13:55:24;10.02;;;4.53;;
43817;SDS011;29868;47.360;18.984;2023-02-28T14:00:42;10.52;;;5.22;;
43817;SDS011;29868;47.360;18.984;2023-02-28T14:05:46;8.93;;;4.60;;
43817;SDS011;29868;47.360;18.984;2023-02-28T14:08:13;7.93;;;4.35;;
43817;SDS011;29868;47.360;18.984;2023-02-28T14:10:46;11.65;;;5.65;;
43817;SDS011;29868;47.360;18.984;2023-02-28T14:13:17;9.18;;;5.50;;
43817;SDS011;29868;47.360;18.984;2023-02-28T14:16:21;8.63;;;4.40;;
43817;SDS011;29868;47.360;18.984;2023-02-28T14:26:38;10.27;;;4.57;;
43817;SDS011;29868;47.360;18.984;2023-02-28T14:32:21;8.98;;;4.70;;
43817;SDS011;29868;47.360;18.984;2023-02-28T14:37:33;9.70;;;5.60;;
43817;SDS011;29868;47.360;18.984;2023-02-28T14:40:03;10.30;;;5.10;;
43817;SDS011;29868;47.360;18.984;2023-02-28T14:42:36;9.02;;;5.32;;
43817;SDS011;29868;47.360;18.984;2023-02-28T14:45:18;9.68;;;4.88;;
43817;SDS011;29868;47.360;18.984;2023-02-28T14:47:46;10.77;;;5.60;;
43817;SDS011;29868;47.360;18.984;2023-02-28T14:50:19;11.68;;;5.93;;
43817;SDS011;29868;47.360;18.984;2023-02-28T14:52:47;9.40;;;5.50;;
43817;SDS011;29868;47.360;18.984;2023-02-28T14:55:17;12.02;;;6.15;;
43817;SDS011;29868;47.360;18.984;2023-02-28T14:57:55;12.05;;;6.63;;
43817;SDS011;29868;47.360;18.984;2023-02-28T15:00:24;12.00;;;6.20;;
43817;SDS011;29868;47.360;18.984;2023-02-28T15:02:52;13.07;;;6.25;;
43817;SDS011;29868;47.360;18.984;2023-02-28T15:05:25;11.25;;;5.40;;
43817;SDS011;29868;47.360;18.984;2023-02-28T15:08:03;12.77;;;6.18;;
43817;SDS011;29868;47.360;18.984;2023-02-28T15:10:55;14.05;;;7.05;;
43817;SDS011;29868;47.360;18.984;2023-02-28T15:13:26;14.10;;;6.88;;
43817;SDS011;29868;47.360;18.984;2023-02-28T15:16:12;12.30;;;6.97;;
43817;SDS011;29868;47.360;18.984;2023-02-28T15:21:15;13.85;;;7.13;;
43817;SDS011;29868;47.360;18.984;2023-02-28T15:23:44;13.57;;;6.05;;
43817;SDS011;29868;47.360;18.984;2023-02-28T15:26:14;10.82;;;5.78;;
43817;SDS011;29868;47.360;18.984;2023-02-28T15:28:44;12.13;;;6.03;;
43817;SDS011;29868;47.360;18.984;2023-02-28T15:31:29;11.35;;;5.70;;
43817;SDS011;29868;47.360;18.984;2023-02-28T15:33:58;13.13;;;5.70;;
43817;SDS011;29868;47.360;18.984;2023-02-28T15:36:30;11.80;;;6.20;;
43817;SDS011;29868;47.360;18.984;2023-02-28T15:38:59;14.65;;;6.72;;
43817;SDS011;29868;47.360;18.984;2023-02-28T15:41:29;15.88;;;5.95;;
43817;SDS011;29868;47.360;18.984;2023-02-28T15:47:01;11.95;;;6.25;;
43817;SDS011;29868;47.360;18.984;2023-02-28T15:52:02;9.43;;;5.32;;
43817;SDS011;29868;47.360;18.984;2023-02-28T15:54:32;11.10;;;5.45;;
43817;SDS011;29868;47.360;18.984;2023-02-28T15:57:06;10.80;;;5.55;;
43817;SDS011;29868;47.360;18.984;2023-02-28T15:59:38;12.10;;;7.03;;
43817;SDS011;29868;47.360;18.984;2023-02-28T16:02:49;16.33;;;8.55;;
43817;SDS011;29868;47.360;18.984;2023-02-28T16:07:28;32.10;;;12.40;;
43817;SDS011;29868;47.360;18.984;2023-02-28T16:09:54;33.28;;;13.60;;
43817;SDS011;29868;47.360;18.984;2023-02-28T16:12:20;12.57;;;6.63;;
43817;SDS011;29868;47.360;18.984;2023-02-28T16:14:50;14.55;;;7.45;;
43817;SDS011;29868;47.360;18.984;2023-02-28T16:17:21;14.70;;;7.72;;
43817;SDS011;29868;47.360;18.984;2023-02-28T16:19:49;12.68;;;7.50;;
43817;SDS011;29868;47.360;18.984;2023-02-28T16:22:14;14.63;;;6.65;;
43817;SDS011;29868;47.360;18.984;2023-02-28T16:24:40;15.13;;;8.55;;
43817;SDS011;29868;47.360;18.984;2023-02-28T16:27:06;11.52;;;6.10;;
43817;SDS011;29868;47.360;18.984;2023-02-28T16:29:39;15.82;;;9.27;;
43817;SDS011;29868;47.360;18.984;2023-02-28T16:32:05;15.15;;;7.82;;
43817;SDS011;29868;47.360;18.984;2023-02-28T16:34:31;17.35;;;8.43;;
43817;SDS011;29868;47.360;18.984;2023-02-28T16:36:56;22.98;;;12.02;;
43817;SDS011;29868;47.360;18.984;2023-02-28T16:39:23;18.63;;;10.55;;
43817;SDS011;29868;47.360;18.984;2023-02-28T16:41:48;19.92;;;10.52;;
43817;SDS011;29868;47.360;18.984;2023-02-28T16:44:36;20.15;;;9.75;;
43817;SDS011;29868;47.360;18.984;2023-02-28T16:49:28;18.38;;;10.10;;
43817;SDS011;29868;47.360;18.984;2023-02-28T16:51:54;17.85;;;9.80;;
43817;SDS011;29868;47.360;18.984;2023-02-28T16:54:19;14.75;;;7.70;;
43817;SDS011;29868;47.360;18.984;2023-02-28T16:56:47;14.13;;;7.82;;
43817;SDS011;29868;47.360;18.984;2023-02-28T16:59:13;15.30;;;8.40;;
43817;SDS011;29868;47.360;18.984;2023-02-28T17:01:43;17.30;;;8.27;;
43817;SDS011;29868;47.360;18.984;2023-02-28T17:04:08;14.45;;;7.85;;
43817;SDS011;29868;47.360;18.984;2023-02-28T17:06:36;16.55;;;9.23;;
43817;SDS011;29868;47.360;18.984;2023-02-28T17:09:01;17.00;;;8.60;;
43817;SDS011;29868;47.360;18.984;2023-02-28T17:11:26;20.02;;;10.57;;
43817;SDS011;29868;47.360;18.984;2023-02-28T17:13:52;16.40;;;9.07;;
43817;SDS011;29868;47.360;18.984;2023-02-28T17:16:30;20.08;;;9.88;;
43817;SDS011;29868;47.360;18.984;2023-02-28T17:18:59;14.15;;;8.07;;
43817;SDS011;29868;47.360;18.984;2023-02-28T17:21:26;15.50;;;8.38;;
43817;SDS011;29868;47.360;18.984;2023-02-28T17:23:52;14.55;;;7.90;;
43817;SDS011;29868;47.360;18.984;2023-02-28T17:26:18;13.55;;;7.78;;
43817;SDS011;29868;47.360;18.984;2023-02-28T17:28:46;12.80;;;6.93;;
43817;SDS011;29868;47.360;18.984;2023-02-28T17:31:12;14.68;;;7.45;;
43817;SDS011;29868;47.360;18.984;2023-02-28T17:33:37;13.60;;;7.60;;
43817;SDS011;29868;47.360;18.984;2023-02-28T17:36:03;16.35;;;8.68;;
43817;SDS011;29868;47.360;18.984;2023-02-28T17:38:29;17.50;;;10.23;;
43817;SDS011;29868;47.360;18.984;2023-02-28T17:40:54;14.57;;;8.05;;
43817;SDS011;29868;47.360;18.984;2023-02-28T17:43:25;16.15;;;8.02;;
43817;SDS011;29868;47.360;18.984;2023-02-28T17:45:52;14.63;;;8.57;;
43817;SDS011;29868;47.360;18.984;2023-02-28T17:48:18;13.57;;;7.85;;
43817;SDS011;29868;47.360;18.984;2023-02-28T17:50:44;15.48;;;8.40;;
43817;SDS011;29868;47.360;18.984;2023-02-28T17:53:09;16.38;;;8.57;;
43817;SDS011;29868;47.360;18.984;2023-02-28T17:55:35;18.70;;;9.82;;
43817;SDS011;29868;47.360;18.984;2023-02-28T17:58:00;19.77;;;9.98;;
43817;SDS011;29868;47.360;18.984;2023-02-28T18:00:27;18.65;;;8.82;;
43817;SDS011;29868;47.360;18.984;2023-02-28T18:02:53;19.85;;;10.27;;
43817;SDS011;29868;47.360;18.984;2023-02-28T18:05:19;22.45;;;11.05;;
43817;SDS011;29868;47.360;18.984;2023-02-28T18:07:44;17.27;;;8.90;;
43817;SDS011;29868;47.360;18.984;2023-02-28T18:10:15;19.10;;;9.77;;
43817;SDS011;29868;47.360;18.984;2023-02-28T18:12:44;17.75;;;8.95;;
43817;SDS011;29868;47.360;18.984;2023-02-28T18:15:14;18.85;;;9.10;;
43817;SDS011;29868;47.360;18.984;2023-02-28T18:17:40;34.30;;;16.80;;
43817;SDS011;29868;47.360;18.984;2023-02-28T18:20:06;39.10;;;19.83;;
43817;SDS011;29868;47.360;18.984;2023-02-28T18:22:34;27.73;;;15.50;;
43817;SDS011;29868;47.360;18.984;2023-02-28T18:25:00;24.77;;;11.98;;
43817;SDS011;29868;47.360;18.984;2023-02-28T18:27:26;25.15;;;12.75;;
43817;SDS011;29868;47.360;18.984;2023-02-28T18:29:52;20.98;;;10.18;;
43817;SDS011;29868;47.360;18.984;2023-02-28T18:32:17;20.08;;;11.30;;
43817;SDS011;29868;47.360;18.984;2023-02-28T18:34:43;16.35;;;9.25;;
43817;SDS011;29868;47.360;18.984;2023-02-28T18:37:08;17.77;;;9.70;;
43817;SDS011;29868;47.360;18.984;2023-02-28T18:39:35;17.73;;;10.23;;
43817;SDS011;29868;47.360;18.984;2023-02-28T18:42:02;18.42;;;9.32;;
43817;SDS011;29868;47.360;18.984;2023-02-28T18:44:27;19.05;;;10.07;;
43817;SDS011;29868;47.360;18.984;2023-02-28T18:46:53;19.45;;;10.27;;
43817;SDS011;29868;47.360;18.984;2023-02-28T18:49:18;18.88;;;9.75;;
43817;SDS011;29868;47.360;18.984;2023-02-28T18:51:44;18.73;;;9.27;;
43817;SDS011;29868;47.360;18.984;2023-02-28T18:54:11;20.10;;;9.60;;
43817;SDS011;29868;47.360;18.984;2023-02-28T18:56:37;29.35;;;15.98;;
43817;SDS011;29868;47.360;18.984;2023-02-28T18:59:03;29.30;;;15.23;;
43817;SDS011;29868;47.360;18.984;2023-02-28T19:01:29;32.90;;;17.13;;
43817;SDS011;29868;47.360;18.984;2023-02-28T19:03:56;68.25;;;33.03;;
43817;SDS011;29868;47.360;18.984;2023-02-28T19:06:24;28.33;;;13.80;;
43817;SDS011;29868;47.360;18.984;2023-02-28T19:08:53;24.90;;;13.65;;
43817;SDS011;29868;47.360;18.984;2023-02-28T19:11:23;26.60;;;13.80;;
43817;SDS011;29868;47.360;18.984;2023-02-28T19:13:49;24.60;;;14.65;;
43817;SDS011;29868;47.360;18.984;2023-02-28T19:16:15;28.42;;;14.23;;
43817;SDS011;29868;47.360;18.984;2023-02-28T19:18:42;23.75;;;14.27;;
43817;SDS011;29868;47.360;18.984;2023-02-28T19:21:09;21.60;;;11.68;;
43817;SDS011;29868;47.360;18.984;2023-02-28T19:23:36;21.60;;;12.48;;
43817;SDS011;29868;47.360;18.984;2023-02-28T19:26:06;21.15;;;12.43;;
43817;SDS011;29868;47.360;18.984;2023-02-28T19:28:33;22.52;;;11.48;;
43817;SDS011;29868;47.360;18.984;2023-02-28T19:30:58;21.42;;;11.77;;
43817;SDS011;29868;47.360;18.984;2023-02-28T19:33:24;20.55;;;11.02;;
43817;SDS011;29868;47.360;18.984;2023-02-28T19:35:50;22.23;;;10.82;;
43817;SDS011;29868;47.360;18.984;2023-02-28T19:38:15;19.88;;;10.27;;
43817;SDS011;29868;47.360;18.984;2023-02-28T19:40:40;22.65;;;10.30;;
43817;SDS011;29868;47.360;18.984;2023-02-28T19:43:06;19.88;;;9.88;;
43817;SDS011;29868;47.360;18.984;2023-02-28T19:45:32;22.02;;;10.40;;
43817;SDS011;29868;47.360;18.984;2023-02-28T19:47:59;18.92;;;9.98;;
43817;SDS011;29868;47.360;18.984;2023-02-28T19:50:25;18.80;;;10.70;;
43817;SDS011;29868;47.360;18.984;2023-02-28T19:52:50;30.17;;;15.40;;
43817;SDS011;29868;47.360;18.984;2023-02-28T19:55:16;26.45;;;13.02;;
43817;SDS011;29868;47.360;18.984;2023-02-28T19:57:42;26.25;;;13.77;;
43817;SDS011;29868;47.360;18.984;2023-02-28T20:00:08;21.05;;;11.48;;
43817;SDS011;29868;47.360;18.984;2023-02-28T20:02:35;23.90;;;11.68;;
43817;SDS011;29868;47.360;18.984;2023-02-28T20:05:01;22.00;;;11.40;;
43817;SDS011;29868;47.360;18.984;2023-02-28T20:07:27;20.15;;;11.80;;
43817;SDS011;29868;47.360;18.984;2023-02-28T20:09:52;23.73;;;12.15;;
43817;SDS011;29868;47.360;18.984;2023-02-28T20:12:18;21.85;;;10.98;;
43817;SDS011;29868;47.360;18.984;2023-02-28T20:14:47;23.92;;;10.88;;
43817;SDS011;29868;47.360;18.984;2023-02-28T20:17:13;21.25;;;10.30;;
43817;SDS011;29868;47.360;18.984;2023-02-28T20:19:38;22.33;;;10.80;;
43817;SDS011;29868;47.360;18.984;2023-02-28T20:22:04;21.73;;;10.40;;
43817;SDS011;29868;47.360;18.984;2023-02-28T20:24:31;18.90;;;8.93;;
43817;SDS011;29868;47.360;18.984;2023-02-28T20:26:57;18.98;;;9.23;;
43817;SDS011;29868;47.360;18.984;2023-02-28T20:29:23;17.02;;;8.93;;
43817;SDS011;29868;47.360;18.984;2023-02-28T20:31:48;19.00;;;9.13;;
43817;SDS011;29868;47.360;18.984;2023-02-28T20:34:14;16.95;;;9.20;;
43817;SDS011;29868;47.360;18.984;2023-02-28T20:36:41;18.73;;;9.73;;
43817;SDS011;29868;47.360;18.984;2023-02-28T20:39:06;17.17;;;9.32;;
43817;SDS011;29868;47.360;18.984;2023-02-28T20:41:32;18.98;;;8.88;;
43817;SDS011;29868;47.360;18.984;2023-02-28T20:43:58;19.00;;;8.85;;
43817;SDS011;29868;47.360;18.984;2023-02-28T20:46:25;18.15;;;9.23;;
43817;SDS011;29868;47.360;18.984;2023-02-28T20:48:51;17.45;;;8.82;;
43817;SDS011;29868;47.360;18.984;2023-02-28T20:51:17;16.02;;;8.38;;
43817;SDS011;29868;47.360;18.984;2023-02-28T20:53:42;16.88;;;8.77;;
43817;SDS011;29868;47.360;18.984;2023-02-28T20:56:15;17.35;;;8.85;;
43817;SDS011;29868;47.360;18.984;2023-02-28T20:58:43;17.75;;;9.45;;
43817;SDS011;29868;47.360;18.984;2023-02-28T21:03:50;21.95;;;11.75;;
43817;SDS011;29868;47.360;18.984;2023-02-28T21:06:18;21.67;;;11.07;;
43817;SDS011;29868;47.360;18.984;2023-02-28T21:08:45;19.08;;;10.88;;
43817;SDS011;29868;47.360;18.984;2023-02-28T21:11:12;19.15;;;9.98;;
43817;SDS011;29868;47.360;18.984;2023-02-28T21:13:39;19.25;;;9.25;;
43817;SDS011;29868;47.360;18.984;2023-02-28T21:16:06;18.23;;;9.35;;
43817;SDS011;29868;47.360;18.984;2023-02-28T21:18:33;16.50;;;9.02;;
43817;SDS011;29868;47.360;18.984;2023-02-28T21:21:07;20.92;;;9.10;;
43817;SDS011;29868;47.360;18.984;2023-02-28T21:26:04;19.15;;;9.60;;
43817;SDS011;29868;47.360;18.984;2023-02-28T21:28:31;18.70;;;10.57;;
43817;SDS011;29868;47.360;18.984;2023-02-28T21:31:01;18.58;;;9.95;;
43817;SDS011;29868;47.360;18.984;2023-02-28T21:33:31;16.20;;;9.73;;
43817;SDS011;29868;47.360;18.984;2023-02-28T21:36:04;18.15;;;9.65;;
43817;SDS011;29868;47.360;18.984;2023-02-28T21:38:32;17.33;;;9.65;;
43817;SDS011;29868;47.360;18.984;2023-02-28T21:41:05;20.02;;;10.07;;
43817;SDS011;29868;47.360;18.984;2023-02-28T21:43:34;18.63;;;9.95;;
43817;SDS011;29868;47.360;18.984;2023-02-28T21:46:01;20.30;;;10.23;;
43817;SDS011;29868;47.360;18.984;2023-02-28T21:48:31;19.60;;;10.07;;
43817;SDS011;29868;47.360;18.984;2023-02-28T21:51:00;19.33;;;10.02;;
43817;SDS011;29868;47.360;18.984;2023-02-28T21:53:28;19.50;;;10.15;;
43817;SDS011;29868;47.360;18.984;2023-02-28T21:55:54;22.40;;;11.63;;
43817;SDS011;29868;47.360;18.984;2023-02-28T21:58:24;21.30;;;11.55;;
43817;SDS011;29868;47.360;18.984;2023-02-28T22:00:50;23.90;;;11.57;;
43817;SDS011;29868;47.360;18.984;2023-02-28T22:03:15;24.63;;;12.35;;
43817;SDS011;29868;47.360;18.984;2023-02-28T22:05:41;23.50;;;13.07;;
43817;SDS011;29868;47.360;18.984;2023-02-28T22:08:07;23.92;;;12.85;;
43817;SDS011;29868;47.360;18.984;2023-02-28T22:10:33;23.17;;;12.70;;
43817;SDS011;29868;47.360;18.984;2023-02-28T22:12:59;21.95;;;12.48;;
43817;SDS011;29868;47.360;18.984;2023-02-28T22:15:27;21.77;;;11.68;;
43817;SDS011;29868;47.360;18.984;2023-02-28T22:17:59;23.05;;;12.07;;
43817;SDS011;29868;47.360;18.984;2023-02-28T22:20:24;21.50;;;11.05;;
43817;SDS011;29868;47.360;18.984;2023-02-28T22:22:50;23.20;;;10.98;;
